Time;durP1;ratioP1;P1;durP2;ratioP2;P2;SDS_P1;SDS_P2;PMS_P1;PMS_P2;Temp;Humidity;BMP_temperature;BMP_pressure;BME280_temperature;BME280_humidity;BME280_pressure;Samples;Min_cycle;Max_cycle;Signal;HPM_P1;HPM_P2
2023/06/07 00:01:08;;;;;;;8.10;6.20;;;;;;;;;;5074199;28;20477;-61
2023/06/07 00:03:37;;;;;;;9.00;6.30;;;;;;;;;;5074841;28;20442;-60
2023/06/07 00:06:05;;;;;;;10.17;6.97;;;;;;;;;;5074478;28;20473;-61
2023/06/07 00:08:33;;;;;;;12.10;5.70;;;;;;;;;;5074667;28;20982;-60
2023/06/07 00:11:00;;;;;;;6.83;6.13;;;;;;;;;;5074674;28;20487;-61
2023/06/07 00:13:27;;;;;;;16.30;6.87;;;;;;;;;;5074477;28;20447;-60
2023/06/07 00:15:56;;;;;;;10.50;6.50;;;;;;;;;;5074621;28;20468;-61
2023/06/07 00:18:23;;;;;;;9.33;6.27;;;;;;;;;;5074418;28;20428;-60
2023/06/07 00:20:52;;;;;;;7.20;5.97;;;;;;;;;;5074293;28;20444;-61
2023/06/07 00:23:20;;;;;;;7.60;6.13;;;;;;;;;;5074577;28;20508;-61
2023/06/07 00:25:48;;;;;;;9.70;6.70;;;;;;;;;;5074169;28;20440;-61
2023/06/07 00:28:15;;;;;;;13.93;6.83;;;;;;;;;;5074299;28;20777;-61
2023/06/07 00:30:42;;;;;;;10.50;6.23;;;;;;;;;;5074114;28;20487;-60
2023/06/07 00:33:11;;;;;;;8.63;6.40;;;;;;;;;;5073878;28;20455;-61
2023/06/07 00:35:38;;;;;;;10.40;6.03;;;;;;;;;;5074383;28;20441;-61
2023/06/07 00:38:05;;;;;;;18.37;6.40;;;;;;;;;;5074302;28;20436;-60
2023/06/07 00:40:33;;;;;;;8.40;6.70;;;;;;;;;;5074297;28;20856;-61
2023/06/07 00:43:00;;;;;;;7.70;6.90;;;;;;;;;;5073558;28;21001;-61
2023/06/07 00:45:27;;;;;;;9.20;5.60;;;;;;;;;;5073721;28;20947;-61
2023/06/07 00:47:54;;;;;;;7.23;6.10;;;;;;;;;;5073604;28;20937;-61
2023/06/07 00:50:23;;;;;;;10.13;6.43;;;;;;;;;;5073933;28;20446;-61
2023/06/07 00:52:51;;;;;;;11.67;7.17;;;;;;;;;;5073753;28;20449;-61
2023/06/07 00:55:18;;;;;;;12.10;6.50;;;;;;;;;;5073713;28;20434;-61
2023/06/07 00:57:45;;;;;;;10.97;7.50;;;;;;;;;;5073376;28;20955;-61
2023/06/07 01:00:15;;;;;;;11.10;6.70;;;;;;;;;;5073359;28;20932;-61
2023/06/07 01:02:46;;;;;;;9.57;6.03;;;;;;;;;;5074169;28;20480;-61
2023/06/07 01:05:14;;;;;;;9.53;7.47;;;;;;;;;;5073239;28;20458;-61
2023/06/07 01:07:44;;;;;;;8.50;6.83;;;;;;;;;;5073828;28;20506;-61
2023/06/07 01:10:12;;;;;;;8.47;6.00;;;;;;;;;;5073668;28;20437;-61
2023/06/07 01:12:44;;;;;;;10.33;6.47;;;;;;;;;;5073052;28;20447;-61
2023/06/07 01:15:11;;;;;;;11.10;6.43;;;;;;;;;;5073339;28;20541;-61
2023/06/07 01:17:40;;;;;;;11.20;7.40;;;;;;;;;;5073310;28;20549;-61
2023/06/07 01:20:12;;;;;;;8.00;6.40;;;;;;;;;;5073102;28;20448;-61
2023/06/07 01:22:42;;;;;;;11.10;6.43;;;;;;;;;;5073364;28;20491;-61
2023/06/07 01:25:10;;;;;;;9.30;6.93;;;;;;;;;;5073103;28;20522;-60
2023/06/07 01:27:39;;;;;;;11.50;6.57;;;;;;;;;;5073329;28;20443;-61
2023/06/07 01:30:08;;;;;;;7.20;6.50;;;;;;;;;;5073267;28;20540;-61
2023/06/07 01:32:36;;;;;;;11.93;6.50;;;;;;;;;;5073424;28;20445;-61
2023/06/07 01:35:04;;;;;;;11.00;7.07;;;;;;;;;;5073238;28;20924;-61
2023/06/07 01:37:32;;;;;;;10.10;7.50;;;;;;;;;;5073132;28;20447;-61
2023/06/07 01:39:59;;;;;;;7.93;6.40;;;;;;;;;;5078962;28;20445;-60
2023/06/07 01:42:28;;;;;;;12.10;7.30;;;;;;;;;;5079376;28;20839;-61
2023/06/07 01:44:56;;;;;;;11.17;6.67;;;;;;;;;;5079836;28;20476;-61
2023/06/07 01:47:23;;;;;;;9.80;6.80;;;;;;;;;;5079698;28;20445;-60
2023/06/07 01:49:50;;;;;;;12.53;6.87;;;;;;;;;;5079507;28;20440;-61
2023/06/07 01:52:17;;;;;;;8.13;6.67;;;;;;;;;;5079709;28;20464;-61
2023/06/07 01:54:45;;;;;;;16.17;7.40;;;;;;;;;;5079751;28;20446;-60
2023/06/07 01:57:17;;;;;;;11.83;6.63;;;;;;;;;;5079679;28;20447;-61
2023/06/07 01:59:49;;;;;;;10.07;6.90;;;;;;;;;;5079916;28;20439;-61
2023/06/07 02:02:19;;;;;;;9.23;7.00;;;;;;;;;;5079292;28;20463;-61
2023/06/07 02:04:48;;;;;;;13.47;6.97;;;;;;;;;;5079648;28;20451;-60
2023/06/07 02:07:22;;;;;;;8.37;5.90;;;;;;;;;;5079544;28;20487;-61
2023/06/07 02:09:50;;;;;;;10.60;6.80;;;;;;;;;;5080357;28;20432;-60
2023/06/07 02:12:18;;;;;;;10.37;6.20;;;;;;;;;;5079781;28;20532;-61
2023/06/07 02:14:52;;;;;;;14.37;7.47;;;;;;;;;;5079587;28;20790;-60
2023/06/07 02:17:19;;;;;;;8.00;6.60;;;;;;;;;;5079475;28;20518;-60
2023/06/07 02:19:46;;;;;;;10.80;6.57;;;;;;;;;;5079260;28;20439;-60
2023/06/07 02:22:14;;;;;;;8.30;6.10;;;;;;;;;;5079739;28;20481;-61
2023/06/07 02:24:41;;;;;;;8.53;6.23;;;;;;;;;;5079557;28;20455;-60
2023/06/07 02:27:10;;;;;;;9.37;7.10;;;;;;;;;;5079100;28;20950;-61
2023/06/07 02:29:37;;;;;;;10.43;7.07;;;;;;;;;;5079593;28;20483;-61
2023/06/07 02:32:06;;;;;;;12.37;7.50;;;;;;;;;;5078922;28;20463;-61
2023/06/07 02:34:34;;;;;;;10.70;6.97;;;;;;;;;;5079573;28;20449;-60
2023/06/07 02:37:01;;;;;;;12.30;7.43;;;;;;;;;;5079407;28;20447;-61
2023/06/07 02:39:28;;;;;;;11.67;6.60;;;;;;;;;;5079765;28;20443;-61
2023/06/07 02:41:55;;;;;;;11.80;6.87;;;;;;;;;;5079151;28;20447;-61
2023/06/07 02:44:22;;;;;;;11.10;6.60;;;;;;;;;;5079738;28;20439;-60
2023/06/07 02:46:50;;;;;;;9.50;7.20;;;;;;;;;;5079120;28;20867;-60
2023/06/07 02:49:18;;;;;;;14.40;7.53;;;;;;;;;;5078812;28;20935;-60
2023/06/07 02:51:45;;;;;;;10.97;6.70;;;;;;;;;;5074867;28;20579;-61
2023/06/07 02:54:15;;;;;;;9.33;6.43;;;;;;;;;;5076010;28;20459;-60
2023/06/07 02:56:43;;;;;;;11.27;7.50;;;;;;;;;;5076214;28;20428;-61
2023/06/07 02:59:10;;;;;;;12.07;8.50;;;;;;;;;;5075648;28;20446;-61
2023/06/07 03:01:37;;;;;;;8.80;7.47;;;;;;;;;;5076087;28;20448;-61
2023/06/07 03:04:05;;;;;;;11.60;7.83;;;;;;;;;;5075749;28;20484;-61
2023/06/07 03:06:34;;;;;;;16.70;8.27;;;;;;;;;;5075496;28;20507;-60
2023/06/07 03:09:01;;;;;;;20.83;9.30;;;;;;;;;;5075756;28;20472;-60
2023/06/07 03:11:29;;;;;;;12.87;7.20;;;;;;;;;;5075677;28;20439;-60
2023/06/07 03:13:56;;;;;;;11.40;8.67;;;;;;;;;;5075706;28;20475;-60
2023/06/07 03:16:23;;;;;;;10.60;7.43;;;;;;;;;;5075177;28;20471;-60
2023/06/07 03:18:50;;;;;;;12.73;9.07;;;;;;;;;;5075274;28;20442;-60
2023/06/07 03:21:17;;;;;;;12.17;8.77;;;;;;;;;;5075261;28;20445;-60
2023/06/07 03:23:46;;;;;;;15.80;9.00;;;;;;;;;;5075349;28;20477;-60
2023/06/07 03:26:14;;;;;;;9.77;7.83;;;;;;;;;;5075187;28;20454;-60
2023/06/07 03:28:41;;;;;;;12.70;8.47;;;;;;;;;;5075376;28;20446;-61
2023/06/07 03:31:08;;;;;;;11.80;9.20;;;;;;;;;;5075576;28;20443;-60
2023/06/07 03:33:35;;;;;;;11.13;8.00;;;;;;;;;;5074911;28;20650;-60
2023/06/07 03:36:07;;;;;;;13.57;8.73;;;;;;;;;;5074974;28;20448;-60
2023/06/07 03:38:34;;;;;;;12.40;7.53;;;;;;;;;;5075257;28;20516;-60
2023/06/07 03:41:02;;;;;;;9.90;8.20;;;;;;;;;;5075135;28;20443;-61
2023/06/07 03:43:29;;;;;;;13.47;9.83;;;;;;;;;;5074931;28;20490;-61
2023/06/07 03:45:57;;;;;;;13.10;8.53;;;;;;;;;;5075292;28;20455;-61
2023/06/07 03:48:24;;;;;;;12.07;9.07;;;;;;;;;;5075010;28;20478;-61
2023/06/07 03:50:51;;;;;;;11.63;8.53;;;;;;;;;;5075005;28;20443;-61
2023/06/07 03:53:18;;;;;;;16.33;10.30;;;;;;;;;;5074900;28;20504;-61
2023/06/07 03:55:46;;;;;;;11.90;8.00;;;;;;;;;;5073941;28;20447;-61
2023/06/07 03:58:19;;;;;;;11.83;8.60;;;;;;;;;;5074585;28;20443;-61
2023/06/07 04:00:46;;;;;;;11.67;8.50;;;;;;;;;;5074930;28;20526;-61
2023/06/07 04:03:14;;;;;;;16.40;9.60;;;;;;;;;;5074469;28;20574;-61
2023/06/07 04:05:41;;;;;;;15.10;9.07;;;;;;;;;;5074204;28;20964;-61
2023/06/07 04:08:09;;;;;;;10.80;8.10;;;;;;;;;;5074600;28;20454;-62
2023/06/07 04:10:36;;;;;;;18.47;10.47;;;;;;;;;;5074277;28;20453;-61
2023/06/07 04:13:04;;;;;;;12.67;8.60;;;;;;;;;;5074333;28;20467;-61
2023/06/07 04:15:32;;;;;;;17.50;9.70;;;;;;;;;;5074544;28;20453;-61
2023/06/07 04:17:59;;;;;;;19.10;11.60;;;;;;;;;;5073931;28;20913;-60
2023/06/07 04:20:26;;;;;;;15.50;10.60;;;;;;;;;;5073945;28;20449;-60
2023/06/07 04:22:53;;;;;;;14.97;10.37;;;;;;;;;;5073892;28;20477;-61
2023/06/07 04:25:22;;;;;;;16.00;10.47;;;;;;;;;;5073777;28;20446;-61
2023/06/07 04:27:51;;;;;;;16.70;9.73;;;;;;;;;;5074184;28;20466;-62
2023/06/07 04:30:18;;;;;;;18.00;10.60;;;;;;;;;;5073951;28;20529;-60
2023/06/07 04:32:47;;;;;;;16.30;11.00;;;;;;;;;;5074137;28;20483;-61
2023/06/07 04:35:14;;;;;;;16.37;10.47;;;;;;;;;;5073910;28;20445;-62
2023/06/07 04:40:18;;;;;;;14.17;10.23;;;;;;;;;;3248575;22;20328;-61
2023/06/07 04:42:46;;;;;;;12.67;10.70;;;;;;;;;;5053844;28;20597;-61
2023/06/07 04:45:13;;;;;;;14.90;10.33;;;;;;;;;;5053587;28;20493;-61
2023/06/07 04:47:45;;;;;;;18.13;10.13;;;;;;;;;;5053928;28;20440;-61
2023/06/07 04:50:13;;;;;;;23.43;11.67;;;;;;;;;;5054150;28;20435;-61
2023/06/07 04:52:41;;;;;;;18.10;10.87;;;;;;;;;;5053431;28;20496;-61
2023/06/07 04:55:08;;;;;;;15.90;12.10;;;;;;;;;;5053645;28;20468;-61
2023/06/07 04:57:35;;;;;;;19.73;11.13;;;;;;;;;;5054127;28;20458;-61
2023/06/07 05:00:06;;;;;;;16.70;10.23;;;;;;;;;;5053873;28;20487;-61
2023/06/07 05:02:39;;;;;;;19.57;10.20;;;;;;;;;;5053632;28;20848;-61
2023/06/07 05:05:06;;;;;;;17.97;10.23;;;;;;;;;;5053611;28;20450;-61
2023/06/07 05:07:35;;;;;;;22.17;12.27;;;;;;;;;;5053730;28;20924;-61
2023/06/07 05:10:02;;;;;;;17.10;10.83;;;;;;;;;;5053338;28;20439;-61
2023/06/07 05:12:29;;;;;;;24.07;11.33;;;;;;;;;;5053036;28;20539;-61
2023/06/07 05:14:56;;;;;;;21.23;11.70;;;;;;;;;;5052400;28;20466;-61
2023/06/07 05:17:23;;;;;;;18.27;11.53;;;;;;;;;;5053002;28;20444;-61
2023/06/07 05:19:51;;;;;;;15.57;11.40;;;;;;;;;;5053597;28;20443;-61
2023/06/07 05:22:18;;;;;;;17.60;11.20;;;;;;;;;;5053271;28;20535;-61
2023/06/07 05:24:46;;;;;;;23.60;12.00;;;;;;;;;;5053230;28;20482;-61
2023/06/07 05:27:14;;;;;;;18.87;11.80;;;;;;;;;;5053223;28;20459;-61
2023/06/07 05:29:41;;;;;;;17.17;11.33;;;;;;;;;;5052847;28;20447;-61
2023/06/07 05:32:08;;;;;;;17.43;10.53;;;;;;;;;;5052891;28;20450;-61
2023/06/07 05:34:37;;;;;;;13.50;10.90;;;;;;;;;;5053241;28;21040;-61
2023/06/07 05:37:06;;;;;;;17.30;12.03;;;;;;;;;;5053183;28;20538;-61
2023/06/07 05:39:34;;;;;;;15.33;10.90;;;;;;;;;;5053047;28;20447;-61
2023/06/07 05:42:02;;;;;;;18.77;13.60;;;;;;;;;;5065372;28;20468;-61
2023/06/07 05:44:30;;;;;;;24.17;13.37;;;;;;;;;;5072661;28;20515;-61
2023/06/07 05:46:57;;;;;;;24.50;12.73;;;;;;;;;;5072655;28;20447;-61
2023/06/07 05:49:24;;;;;;;24.30;14.80;;;;;;;;;;5073068;28;20442;-61
2023/06/07 05:51:51;;;;;;;18.87;11.60;;;;;;;;;;5072783;28;20949;-61
2023/06/07 05:54:18;;;;;;;21.20;12.80;;;;;;;;;;5072933;28;20451;-61
2023/06/07 05:56:45;;;;;;;19.57;12.03;;;;;;;;;;5072941;28;20450;-61
2023/06/07 05:59:14;;;;;;;20.83;11.73;;;;;;;;;;5072962;28;20449;-61
2023/06/07 06:01:42;;;;;;;23.27;12.17;;;;;;;;;;5072298;28;20445;-61
2023/06/07 06:04:10;;;;;;;21.03;12.40;;;;;;;;;;5073398;28;20472;-61
2023/06/07 06:06:38;;;;;;;16.93;12.97;;;;;;;;;;5072730;28;20799;-62
2023/06/07 06:09:05;;;;;;;20.57;11.93;;;;;;;;;;5073149;28;20543;-62
2023/06/07 06:11:32;;;;;;;17.63;11.87;;;;;;;;;;5072142;28;20939;-61
2023/06/07 06:13:59;;;;;;;15.27;11.00;;;;;;;;;;5072838;28;20818;-61
2023/06/07 06:16:28;;;;;;;17.07;11.03;;;;;;;;;;5072726;28;20451;-61
2023/06/07 06:18:55;;;;;;;24.40;13.80;;;;;;;;;;5072823;28;20807;-61
2023/06/07 06:21:22;;;;;;;22.97;12.10;;;;;;;;;;5072770;28;20454;-62
2023/06/07 06:23:49;;;;;;;19.53;12.77;;;;;;;;;;5072239;28;20481;-61
2023/06/07 06:26:17;;;;;;;19.13;13.27;;;;;;;;;;5076104;28;20451;-61
2023/06/07 06:28:44;;;;;;;21.47;12.50;;;;;;;;;;5076220;28;20465;-61
2023/06/07 06:31:11;;;;;;;18.83;11.90;;;;;;;;;;5076267;28;20446;-61
2023/06/07 06:33:40;;;;;;;22.20;12.43;;;;;;;;;;5076265;28;20507;-61
2023/06/07 06:36:08;;;;;;;20.50;12.33;;;;;;;;;;5075971;28;20857;-61
2023/06/07 06:38:35;;;;;;;13.73;11.73;;;;;;;;;;5075975;28;20912;-61
2023/06/07 06:41:02;;;;;;;16.00;11.30;;;;;;;;;;5075904;28;20470;-61
2023/06/07 06:43:29;;;;;;;18.40;12.10;;;;;;;;;;5076457;28;20482;-61
2023/06/07 06:45:56;;;;;;;18.47;12.83;;;;;;;;;;5076144;28;20788;-61
2023/06/07 06:48:24;;;;;;;23.63;11.90;;;;;;;;;;5076276;28;20439;-61
2023/06/07 06:50:52;;;;;;;19.93;11.37;;;;;;;;;;5076045;28;20441;-62
2023/06/07 06:53:19;;;;;;;22.03;11.87;;;;;;;;;;5076518;28;20817;-61
2023/06/07 06:55:47;;;;;;;16.00;11.87;;;;;;;;;;5076005;28;20452;-61
2023/06/07 06:58:14;;;;;;;19.67;13.00;;;;;;;;;;5076003;28;20454;-61
2023/06/07 07:00:41;;;;;;;21.67;13.97;;;;;;;;;;5075975;28;20487;-61
2023/06/07 07:03:09;;;;;;;31.00;12.60;;;;;;;;;;5075372;28;20940;-61
2023/06/07 07:05:36;;;;;;;22.07;13.60;;;;;;;;;;5075670;28;20509;-61
2023/06/07 07:08:06;;;;;;;19.20;12.60;;;;;;;;;;5075757;28;20446;-61
2023/06/07 07:10:33;;;;;;;29.20;13.73;;;;;;;;;;5076397;28;20435;-62
2023/06/07 07:13:00;;;;;;;19.87;12.83;;;;;;;;;;5075766;28;20807;-61
2023/06/07 07:15:28;;;;;;;26.53;13.30;;;;;;;;;;5075996;28;20941;-61
2023/06/07 07:17:55;;;;;;;27.50;13.53;;;;;;;;;;5075453;28;20471;-61
2023/06/07 07:20:22;;;;;;;24.33;14.20;;;;;;;;;;5075693;28;20439;-61
2023/06/07 07:22:49;;;;;;;23.40;13.07;;;;;;;;;;5075236;28;20501;-61
2023/06/07 07:25:18;;;;;;;21.90;12.47;;;;;;;;;;5075181;28;20481;-61
2023/06/07 07:27:45;;;;;;;20.43;12.63;;;;;;;;;;5075088;28;20890;-61
2023/06/07 07:30:12;;;;;;;19.83;13.43;;;;;;;;;;5075956;28;20841;-61
2023/06/07 07:32:40;;;;;;;23.10;13.77;;;;;;;;;;5075278;28;20450;-61
2023/06/07 07:35:07;;;;;;;21.63;13.50;;;;;;;;;;5075350;28;20446;-61
2023/06/07 07:37:35;;;;;;;22.73;12.13;;;;;;;;;;5074553;28;20450;-61
2023/06/07 07:40:03;;;;;;;19.07;12.93;;;;;;;;;;5074976;28;20508;-61
2023/06/07 07:42:32;;;;;;;20.83;13.07;;;;;;;;;;5074821;28;20471;-61
2023/06/07 07:44:59;;;;;;;24.63;14.17;;;;;;;;;;5074803;28;20988;-61
2023/06/07 07:47:26;;;;;;;16.20;12.00;;;;;;;;;;5075083;28;20444;-62
2023/06/07 07:49:55;;;;;;;16.33;13.53;;;;;;;;;;5075328;28;20879;-61
2023/06/07 07:52:22;;;;;;;15.63;12.20;;;;;;;;;;5075340;28;20504;-61
2023/06/07 07:54:49;;;;;;;19.60;13.33;;;;;;;;;;5075624;28;20449;-61
2023/06/07 07:57:16;;;;;;;21.57;12.80;;;;;;;;;;5075184;28;20454;-62
2023/06/07 07:59:45;;;;;;;23.07;12.40;;;;;;;;;;5074507;28;20448;-61
2023/06/07 08:02:12;;;;;;;25.27;14.43;;;;;;;;;;5074918;28;20798;-61
2023/06/07 08:04:40;;;;;;;21.27;14.73;;;;;;;;;;5074625;28;20482;-61
2023/06/07 08:07:07;;;;;;;19.13;12.80;;;;;;;;;;5074515;28;20503;-62
2023/06/07 08:09:34;;;;;;;21.70;14.20;;;;;;;;;;5074342;28;20447;-61
2023/06/07 08:12:01;;;;;;;25.37;14.00;;;;;;;;;;5073872;28;20461;-61
2023/06/07 08:14:28;;;;;;;21.10;13.30;;;;;;;;;;5074993;28;20554;-61
2023/06/07 08:16:57;;;;;;;20.33;13.23;;;;;;;;;;5073869;28;20471;-61
2023/06/07 08:19:26;;;;;;;23.60;12.73;;;;;;;;;;5073860;28;20445;-62
2023/06/07 08:21:53;;;;;;;22.60;13.63;;;;;;;;;;5073881;28;20547;-62
2023/06/07 08:24:20;;;;;;;22.47;14.10;;;;;;;;;;5072969;28;20482;-62
2023/06/07 08:26:49;;;;;;;18.87;12.87;;;;;;;;;;5073826;28;20451;-62
2023/06/07 08:29:16;;;;;;;18.93;14.43;;;;;;;;;;5073536;28;20800;-62
2023/06/07 08:31:45;;;;;;;21.50;14.30;;;;;;;;;;5073704;28;20443;-62
2023/06/07 08:34:13;;;;;;;22.33;13.77;;;;;;;;;;5073704;28;20480;-62
2023/06/07 08:36:41;;;;;;;22.43;14.10;;;;;;;;;;5073850;28;20856;-62
2023/06/07 08:39:08;;;;;;;26.97;14.80;;;;;;;;;;5073824;28;20453;-62
2023/06/07 08:41:36;;;;;;;18.47;12.67;;;;;;;;;;5073224;28;20472;-62
2023/06/07 08:44:03;;;;;;;14.90;11.53;;;;;;;;;;5073625;28;20439;-62
2023/06/07 08:46:31;;;;;;;18.10;13.00;;;;;;;;;;5073722;28;20534;-62
2023/06/07 08:49:00;;;;;;;21.30;12.87;;;;;;;;;;5072521;28;20438;-62
2023/06/07 08:51:29;;;;;;;24.03;14.93;;;;;;;;;;5073714;28;20459;-62
2023/06/07 08:53:57;;;;;;;25.63;13.63;;;;;;;;;;5073219;28;20531;-62
2023/06/07 08:56:27;;;;;;;20.13;12.27;;;;;;;;;;5073454;28;20470;-62
2023/06/07 08:58:54;;;;;;;26.63;14.30;;;;;;;;;;5073302;28;20500;-62
2023/06/07 09:01:23;;;;;;;21.10;13.23;;;;;;;;;;5073119;28;20486;-61
2023/06/07 09:03:52;;;;;;;28.13;14.20;;;;;;;;;;5072970;28;20457;-62
2023/06/07 09:06:19;;;;;;;23.47;13.47;;;;;;;;;;5073019;28;20504;-62
2023/06/07 09:08:48;;;;;;;24.27;13.70;;;;;;;;;;5072992;28;20451;-62
2023/06/07 09:11:15;;;;;;;22.83;14.37;;;;;;;;;;5072927;28;20442;-62
2023/06/07 09:13:43;;;;;;;31.93;12.80;;;;;;;;;;5073096;28;20436;-62
2023/06/07 09:16:11;;;;;;;20.27;13.43;;;;;;;;;;5073162;28;20447;-62
2023/06/07 09:18:42;;;;;;;22.07;13.47;;;;;;;;;;5073418;28;20454;-63
2023/06/07 09:21:20;;;;;;;23.43;13.50;;;;;;;;;;5072976;28;20497;-62
2023/06/07 09:23:49;;;;;;;22.77;14.27;;;;;;;;;;5072912;28;20474;-62
2023/06/07 09:26:17;;;;;;;23.50;14.20;;;;;;;;;;5072976;28;20541;-62
2023/06/07 09:28:45;;;;;;;17.83;12.43;;;;;;;;;;5073046;28;20441;-62
2023/06/07 09:31:13;;;;;;;23.70;14.47;;;;;;;;;;5072869;28;20521;-62
2023/06/07 09:33:41;;;;;;;22.57;15.47;;;;;;;;;;5072731;28;20435;-62
2023/06/07 09:36:09;;;;;;;24.00;13.87;;;;;;;;;;5073637;28;20452;-62
2023/06/07 09:38:36;;;;;;;23.93;15.67;;;;;;;;;;5072899;28;20549;-62
2023/06/07 09:41:05;;;;;;;26.73;15.77;;;;;;;;;;5072743;28;20473;-62
2023/06/07 09:43:47;;;;;;;19.10;14.20;;;;;;;;;;5072795;28;20451;-62
2023/06/07 09:46:15;;;;;;;17.47;13.83;;;;;;;;;;5072508;28;20470;-62
2023/06/07 09:48:45;;;;;;;19.53;14.07;;;;;;;;;;5072454;28;20442;-62
2023/06/07 09:51:13;;;;;;;20.43;14.60;;;;;;;;;;5072692;28;20529;-62
2023/06/07 09:53:54;;;;;;;18.87;12.67;;;;;;;;;;5072759;28;20486;-62
2023/06/07 09:56:23;;;;;;;22.03;13.70;;;;;;;;;;5072445;28;20453;-62
2023/06/07 09:58:51;;;;;;;18.43;12.60;;;;;;;;;;5072622;28;20442;-62
2023/06/07 10:01:33;;;;;;;25.43;13.97;;;;;;;;;;5076360;28;20446;-62
2023/06/07 10:04:02;;;;;;;20.43;12.67;;;;;;;;;;5073841;28;20457;-62
2023/06/07 10:06:32;;;;;;;25.33;13.57;;;;;;;;;;5076555;28;20476;-62
2023/06/07 10:09:01;;;;;;;23.20;14.30;;;;;;;;;;5076569;28;20483;-62
2023/06/07 10:11:31;;;;;;;28.33;14.03;;;;;;;;;;5076256;28;20833;-62
2023/06/07 10:13:58;;;;;;;19.83;14.50;;;;;;;;;;5076898;28;20483;-62
2023/06/07 10:16:27;;;;;;;17.90;13.83;;;;;;;;;;5076821;28;20446;-62
2023/06/07 10:18:56;;;;;;;19.93;13.47;;;;;;;;;;5076357;28;20438;-62
2023/06/07 10:21:25;;;;;;;21.63;14.30;;;;;;;;;;5076388;28;20443;-62
2023/06/07 10:23:52;;;;;;;21.00;12.33;;;;;;;;;;5075729;28;20932;-62
2023/06/07 10:26:21;;;;;;;18.33;12.53;;;;;;;;;;5076147;28;20480;-62
2023/06/07 10:28:52;;;;;;;18.00;13.70;;;;;;;;;;5075768;28;20953;-62
2023/06/07 10:31:20;;;;;;;19.53;13.17;;;;;;;;;;5076296;28;20442;-62
2023/06/07 10:33:50;;;;;;;21.93;13.17;;;;;;;;;;5075670;28;20455;-62
2023/06/07 10:36:23;;;;;;;20.20;13.50;;;;;;;;;;5075815;28;21107;-62
2023/06/07 10:38:51;;;;;;;16.87;13.20;;;;;;;;;;5076031;28;20439;-62
2023/06/07 10:41:18;;;;;;;25.07;12.57;;;;;;;;;;5075769;28;20474;-62
2023/06/07 10:43:46;;;;;;;23.70;13.70;;;;;;;;;;5075966;28;20850;-62
2023/06/07 10:46:24;;;;;;;14.90;11.03;;;;;;;;;;5076109;28;20910;-62
2023/06/07 10:48:52;;;;;;;17.70;10.70;;;;;;;;;;5075474;28;20436;-63
2023/06/07 10:51:19;;;;;;;18.33;11.67;;;;;;;;;;5075569;28;20937;-62
2023/06/07 10:53:49;;;;;;;17.03;12.13;;;;;;;;;;5075515;28;20440;-62
2023/06/07 10:56:30;;;;;;;18.37;13.40;;;;;;;;;;5076078;28;20483;-62
2023/06/07 10:58:57;;;;;;;16.00;11.13;;;;;;;;;;5076078;28;20436;-63
2023/06/07 11:01:26;;;;;;;22.17;12.60;;;;;;;;;;5075583;28;20998;-62
2023/06/07 11:03:54;;;;;;;19.23;11.73;;;;;;;;;;5075351;28;20439;-62
2023/06/07 11:06:21;;;;;;;17.00;11.93;;;;;;;;;;5075524;28;20472;-62
2023/06/07 11:08:50;;;;;;;17.47;12.43;;;;;;;;;;5076182;28;20439;-62
2023/06/07 11:11:51;;;;;;;16.37;11.57;;;;;;;;;;5074442;28;20605;-62
2023/06/07 11:14:18;;;;;;;18.53;11.80;;;;;;;;;;5075112;28;20431;-63
2023/06/07 11:16:47;;;;;;;16.00;12.00;;;;;;;;;;5075473;28;20454;-62
2023/06/07 11:19:16;;;;;;;18.17;12.10;;;;;;;;;;5075619;28;20475;-63
2023/06/07 11:22:05;;;;;;;17.87;12.67;;;;;;;;;;5075427;28;20444;-62
2023/06/07 11:24:33;;;;;;;21.43;13.50;;;;;;;;;;5075145;28;20432;-62
2023/06/07 11:27:01;;;;;;;20.63;11.97;;;;;;;;;;5075149;28;20561;-62
2023/06/07 11:29:30;;;;;;;18.27;12.60;;;;;;;;;;5075282;28;20442;-62
2023/06/07 11:31:59;;;;;;;15.10;11.90;;;;;;;;;;5075659;28;20472;-62
2023/06/07 11:34:27;;;;;;;17.40;11.83;;;;;;;;;;5074055;28;20448;-63
2023/06/07 11:37:06;;;;;;;17.80;12.10;;;;;;;;;;5074932;28;20764;-62
2023/06/07 11:39:34;;;;;;;20.00;12.10;;;;;;;;;;5074871;28;20458;-62
2023/06/07 11:42:02;;;;;;;20.13;12.40;;;;;;;;;;5074927;28;20479;-62
2023/06/07 11:44:29;;;;;;;15.17;12.10;;;;;;;;;;5075178;28;20504;-63
2023/06/07 11:46:57;;;;;;;19.93;11.93;;;;;;;;;;5074911;28;20502;-62
2023/06/07 11:49:26;;;;;;;14.23;12.63;;;;;;;;;;5074606;28;20441;-62
2023/06/07 11:51:57;;;;;;;15.03;11.90;;;;;;;;;;5074719;28;20452;-62
2023/06/07 11:54:25;;;;;;;15.87;11.30;;;;;;;;;;5074400;28;20441;-62
2023/06/07 11:56:53;;;;;;;12.00;10.80;;;;;;;;;;5074197;28;20444;-62
2023/06/07 11:59:22;;;;;;;15.70;11.87;;;;;;;;;;5074674;28;20437;-62
2023/06/07 12:01:52;;;;;;;16.90;11.60;;;;;;;;;;5074140;28;20952;-62
2023/06/07 12:04:19;;;;;;;17.10;11.67;;;;;;;;;;5074083;28;20472;-62
2023/06/07 12:06:49;;;;;;;17.00;11.27;;;;;;;;;;5074323;28;20485;-62
2023/06/07 12:09:18;;;;;;;17.13;12.37;;;;;;;;;;5074132;28;20925;-62
2023/06/07 12:11:45;;;;;;;17.43;11.97;;;;;;;;;;5074156;28;20451;-62
2023/06/07 12:14:12;;;;;;;18.37;11.80;;;;;;;;;;5074396;28;20843;-62
2023/06/07 12:16:45;;;;;;;13.23;11.67;;;;;;;;;;5074052;28;20448;-62
2023/06/07 12:19:12;;;;;;;13.33;11.87;;;;;;;;;;5074538;28;20793;-62
2023/06/07 12:21:39;;;;;;;13.33;11.20;;;;;;;;;;5073827;28;20454;-62
2023/06/07 12:24:08;;;;;;;13.13;10.77;;;;;;;;;;5073934;28;20436;-62
2023/06/07 12:26:38;;;;;;;16.27;10.97;;;;;;;;;;5073988;28;20491;-62
2023/06/07 12:29:05;;;;;;;13.83;12.20;;;;;;;;;;5074392;28;20846;-62
2023/06/07 12:31:32;;;;;;;11.80;10.63;;;;;;;;;;5073944;28;20449;-62
2023/06/07 12:34:01;;;;;;;17.40;10.60;;;;;;;;;;5074215;28;20445;-62
2023/06/07 12:36:29;;;;;;;13.77;12.10;;;;;;;;;;5073819;28;20449;-62
2023/06/07 12:38:59;;;;;;;12.10;10.00;;;;;;;;;;5073620;28;20440;-62
2023/06/07 12:41:28;;;;;;;15.37;11.03;;;;;;;;;;5073585;28;20474;-62
2023/06/07 12:43:56;;;;;;;12.83;9.60;;;;;;;;;;5073825;28;20532;-62
2023/06/07 12:46:24;;;;;;;16.77;13.50;;;;;;;;;;5073601;28;20482;-62
2023/06/07 12:48:51;;;;;;;15.17;10.87;;;;;;;;;;5073686;28;20465;-62
2023/06/07 12:51:18;;;;;;;10.67;8.70;;;;;;;;;;5073597;28;20443;-62
2023/06/07 12:53:46;;;;;;;9.70;8.70;;;;;;;;;;5073654;28;20444;-62
2023/06/07 12:56:13;;;;;;;13.87;9.30;;;;;;;;;;5073509;28;20443;-63
2023/06/07 12:58:42;;;;;;;11.43;10.10;;;;;;;;;;5074023;28;20451;-63
2023/06/07 13:01:09;;;;;;;10.90;9.80;;;;;;;;;;5073100;28;20450;-62
2023/06/07 13:03:36;;;;;;;11.77;9.30;;;;;;;;;;5073149;28;20444;-62
2023/06/07 13:06:04;;;;;;;13.07;9.20;;;;;;;;;;5073007;28;20534;-63
2023/06/07 13:08:31;;;;;;;9.90;8.90;;;;;;;;;;5073496;28;20538;-62
2023/06/07 13:10:58;;;;;;;11.60;8.70;;;;;;;;;;5073275;28;20448;-63
2023/06/07 13:13:25;;;;;;;10.07;8.00;;;;;;;;;;5073532;28;20475;-62
2023/06/07 13:15:54;;;;;;;12.23;9.13;;;;;;;;;;5073218;28;20448;-62
2023/06/07 13:18:22;;;;;;;12.33;8.80;;;;;;;;;;5072999;28;20441;-62
2023/06/07 13:20:50;;;;;;;10.30;7.93;;;;;;;;;;5073271;28;20458;-63
2023/06/07 13:23:17;;;;;;;9.60;8.60;;;;;;;;;;5073065;28;20452;-63
2023/06/07 13:25:44;;;;;;;10.33;7.03;;;;;;;;;;5073042;28;21045;-62
2023/06/07 13:28:12;;;;;;;13.83;10.43;;;;;;;;;;5073079;28;20519;-62
2023/06/07 13:30:39;;;;;;;12.73;8.40;;;;;;;;;;5073555;28;20460;-62
2023/06/07 13:33:17;;;;;;;8.33;7.30;;;;;;;;;;5073004;28;20436;-63
2023/06/07 13:35:44;;;;;;;7.40;6.63;;;;;;;;;;5071675;28;20797;-62
2023/06/07 13:38:12;;;;;;;13.20;9.97;;;;;;;;;;5072631;28;20438;-62
2023/06/07 13:40:39;;;;;;;11.07;7.97;;;;;;;;;;5072366;28;20534;-62
2023/06/07 13:43:06;;;;;;;8.30;6.80;;;;;;;;;;5072989;28;20450;-62
2023/06/07 13:45:33;;;;;;;6.87;6.20;;;;;;;;;;5072728;28;20447;-62
2023/06/07 13:48:01;;;;;;;10.40;6.90;;;;;;;;;;5072250;28;20433;-63
2023/06/07 13:50:30;;;;;;;9.70;7.03;;;;;;;;;;5072744;28;20446;-63
2023/06/07 13:52:57;;;;;;;8.73;5.93;;;;;;;;;;5072454;28;20441;-62
2023/06/07 13:55:24;;;;;;;7.77;5.97;;;;;;;;;;5072493;28;20430;-62
2023/06/07 13:57:52;;;;;;;9.03;6.30;;;;;;;;;;5072652;28;20450;-62
2023/06/07 14:00:19;;;;;;;10.17;6.07;;;;;;;;;;5072601;28;21017;-62
2023/06/07 14:02:46;;;;;;;7.40;6.80;;;;;;;;;;5072414;28;20426;-62
2023/06/07 14:05:14;;;;;;;7.53;6.67;;;;;;;;;;5072369;28;20523;-62
2023/06/07 14:07:42;;;;;;;9.80;6.90;;;;;;;;;;5072419;28;20483;-62
2023/06/07 14:10:10;;;;;;;7.53;6.83;;;;;;;;;;5072343;28;20420;-62
2023/06/07 14:12:37;;;;;;;13.20;6.80;;;;;;;;;;5072351;28;20458;-62
2023/06/07 14:15:05;;;;;;;7.83;7.03;;;;;;;;;;5072247;28;21038;-62
2023/06/07 14:17:32;;;;;;;7.90;7.20;;;;;;;;;;5072143;28;20430;-62
2023/06/07 14:19:59;;;;;;;8.30;6.47;;;;;;;;;;5072144;28;20429;-62
2023/06/07 14:22:27;;;;;;;9.37;7.13;;;;;;;;;;5072652;28;20431;-62
2023/06/07 14:24:55;;;;;;;13.03;7.70;;;;;;;;;;5072233;28;20449;-62
2023/06/07 14:27:22;;;;;;;8.93;6.67;;;;;;;;;;5072032;28;20998;-62
2023/06/07 14:29:49;;;;;;;7.13;6.37;;;;;;;;;;5072535;28;20874;-62
2023/06/07 14:32:17;;;;;;;10.00;6.67;;;;;;;;;;5071958;28;20896;-62